sensor_id;sensor_type;location;lat;lon;timestamp;P1;durP1;ratioP1;P2;durP2;ratioP2
23370;SDS011;11858;51.056;3.712;2024-03-23T00:54:14;1.30;;;1.30;;
23370;SDS011;11858;51.056;3.712;2024-03-23T00:56:40;1.20;;;1.20;;
23370;SDS011;11858;51.056;3.712;2024-03-23T00:59:05;1.27;;;1.27;;
23370;SDS011;11858;51.056;3.712;2024-03-23T01:01:31;1.60;;;1.60;;
23370;SDS011;11858;51.056;3.712;2024-03-23T01:03:56;1.75;;;1.65;;
23370;SDS011;11858;51.056;3.712;2024-03-23T01:06:22;1.20;;;1.20;;
23370;SDS011;11858;51.056;3.712;2024-03-23T01:08:48;1.35;;;1.35;;
23370;SDS011;11858;51.056;3.712;2024-03-23T01:11:13;6.90;;;1.50;;
23370;SDS011;11858;51.056;3.712;2024-03-23T01:13:39;1.30;;;1.30;;
23370;SDS011;11858;51.056;3.712;2024-03-23T01:16:05;3.55;;;2.28;;
23370;SDS011;11858;51.056;3.712;2024-03-23T01:18:30;1.10;;;1.10;;
23370;SDS011;11858;51.056;3.712;2024-03-23T01:20:56;1.30;;;1.30;;
23370;SDS011;11858;51.056;3.712;2024-03-23T01:23:21;1.20;;;1.20;;
23370;SDS011;11858;51.056;3.712;2024-03-23T01:25:54;1.33;;;1.33;;
23370;SDS011;11858;51.056;3.712;2024-03-23T01:28:20;1.20;;;1.20;;
23370;SDS011;11858;51.056;3.712;2024-03-23T01:30:46;1.30;;;1.30;;
23370;SDS011;11858;51.056;3.712;2024-03-23T01:33:12;2.58;;;1.98;;
23370;SDS011;11858;51.056;3.712;2024-03-23T01:35:38;2.60;;;2.15;;
23370;SDS011;11858;51.056;3.712;2024-03-23T01:38:03;1.40;;;1.40;;
23370;SDS011;11858;51.056;3.712;2024-03-23T01:40:29;1.50;;;1.50;;
23370;SDS011;11858;51.056;3.712;2024-03-23T01:42:57;1.45;;;1.45;;
23370;SDS011;11858;51.056;3.712;2024-03-23T01:45:24;1.50;;;1.50;;
23370;SDS011;11858;51.056;3.712;2024-03-23T01:47:50;1.52;;;1.52;;
23370;SDS011;11858;51.056;3.712;2024-03-23T01:50:17;1.50;;;1.50;;
23370;SDS011;11858;51.056;3.712;2024-03-23T01:52:43;1.40;;;1.40;;
23370;SDS011;11858;51.056;3.712;2024-03-23T01:55:09;1.52;;;1.52;;
23370;SDS011;11858;51.056;3.712;2024-03-23T01:57:35;1.88;;;1.83;;
23370;SDS011;11858;51.056;3.712;2024-03-23T02:00:00;1.50;;;1.50;;
23370;SDS011;11858;51.056;3.712;2024-03-23T02:02:26;1.55;;;1.55;;
23370;SDS011;11858;51.056;3.712;2024-03-23T02:04:52;1.52;;;1.52;;
23370;SDS011;11858;51.056;3.712;2024-03-23T02:07:17;1.60;;;1.60;;
23370;SDS011;11858;51.056;3.712;2024-03-23T02:09:43;1.95;;;1.85;;
23370;SDS011;11858;51.056;3.712;2024-03-23T02:12:09;1.73;;;1.73;;
23370;SDS011;11858;51.056;3.712;2024-03-23T02:14:35;4.78;;;3.33;;
23370;SDS011;11858;51.056;3.712;2024-03-23T02:17:01;2.30;;;2.13;;
23370;SDS011;11858;51.056;3.712;2024-03-23T02:19:26;1.75;;;1.75;;
23370;SDS011;11858;51.056;3.712;2024-03-23T02:21:52;2.47;;;2.22;;
23370;SDS011;11858;51.056;3.712;2024-03-23T02:24:17;7.53;;;4.03;;
23370;SDS011;11858;51.056;3.712;2024-03-23T02:26:43;1.95;;;1.85;;
23370;SDS011;11858;51.056;3.712;2024-03-23T02:29:08;2.00;;;1.90;;
23370;SDS011;11858;51.056;3.712;2024-03-23T02:31:35;2.03;;;1.92;;
23370;SDS011;11858;51.056;3.712;2024-03-23T02:34:01;1.70;;;1.70;;
23370;SDS011;11858;51.056;3.712;2024-03-23T02:36:26;2.00;;;1.90;;
23370;SDS011;11858;51.056;3.712;2024-03-23T02:38:52;2.20;;;2.10;;
23370;SDS011;11858;51.056;3.712;2024-03-23T02:41:17;2.40;;;2.30;;
23370;SDS011;11858;51.056;3.712;2024-03-23T02:43:48;2.20;;;2.10;;
23370;SDS011;11858;51.056;3.712;2024-03-23T02:46:14;3.10;;;2.90;;
23370;SDS011;11858;51.056;3.712;2024-03-23T02:48:40;2.40;;;2.30;;
23370;SDS011;11858;51.056;3.712;2024-03-23T02:51:06;2.63;;;2.53;;
23370;SDS011;11858;51.056;3.712;2024-03-23T02:53:31;2.60;;;2.50;;
23370;SDS011;11858;51.056;3.712;2024-03-23T02:55:58;2.55;;;2.45;;
23370;SDS011;11858;51.056;3.712;2024-03-23T02:58:23;2.90;;;2.80;;
23370;SDS011;11858;51.056;3.712;2024-03-23T03:00:49;2.90;;;2.80;;
23370;SDS011;11858;51.056;3.712;2024-03-23T03:03:15;2.90;;;2.80;;
23370;SDS011;11858;51.056;3.712;2024-03-23T03:05:40;2.70;;;2.60;;
23370;SDS011;11858;51.056;3.712;2024-03-23T03:08:06;2.60;;;2.50;;
23370;SDS011;11858;51.056;3.712;2024-03-23T03:10:32;2.80;;;2.70;;
23370;SDS011;11858;51.056;3.712;2024-03-23T03:13:01;3.13;;;2.92;;
23370;SDS011;11858;51.056;3.712;2024-03-23T03:15:27;3.30;;;3.15;;
23370;SDS011;11858;51.056;3.712;2024-03-23T03:17:53;2.70;;;2.60;;
23370;SDS011;11858;51.056;3.712;2024-03-23T03:20:18;2.80;;;2.70;;
23370;SDS011;11858;51.056;3.712;2024-03-23T03:22:44;2.90;;;2.80;;
23370;SDS011;11858;51.056;3.712;2024-03-23T03:25:09;3.22;;;3.03;;
23370;SDS011;11858;51.056;3.712;2024-03-23T03:27:35;3.17;;;3.05;;
23370;SDS011;11858;51.056;3.712;2024-03-23T03:30:01;3.58;;;3.38;;
23370;SDS011;11858;51.056;3.712;2024-03-23T03:32:30;4.35;;;3.88;;
23370;SDS011;11858;51.056;3.712;2024-03-23T03:34:55;2.97;;;2.88;;
23370;SDS011;11858;51.056;3.712;2024-03-23T03:37:21;5.57;;;3.85;;
23370;SDS011;11858;51.056;3.712;2024-03-23T03:39:46;3.10;;;3.00;;
23370;SDS011;11858;51.056;3.712;2024-03-23T03:42:12;4.03;;;3.72;;
23370;SDS011;11858;51.056;3.712;2024-03-23T03:44:38;3.80;;;3.60;;
23370;SDS011;11858;51.056;3.712;2024-03-23T03:47:04;3.60;;;3.40;;
23370;SDS011;11858;51.056;3.712;2024-03-23T03:49:31;3.10;;;3.00;;
23370;SDS011;11858;51.056;3.712;2024-03-23T03:51:56;6.28;;;4.00;;
23370;SDS011;11858;51.056;3.712;2024-03-23T03:54:22;3.28;;;3.08;;
23370;SDS011;11858;51.056;3.712;2024-03-23T03:56:48;19.20;;;5.90;;
23370;SDS011;11858;51.056;3.712;2024-03-23T03:59:13;3.58;;;3.38;;
23370;SDS011;11858;51.056;3.712;2024-03-23T04:01:39;3.22;;;3.13;;
23370;SDS011;11858;51.056;3.712;2024-03-23T04:04:05;3.88;;;3.67;;
23370;SDS011;11858;51.056;3.712;2024-03-23T04:06:31;3.03;;;2.92;;
23370;SDS011;11858;51.056;3.712;2024-03-23T04:08:58;3.33;;;3.22;;
23370;SDS011;11858;51.056;3.712;2024-03-23T04:11:24;3.63;;;3.42;;
23370;SDS011;11858;51.056;3.712;2024-03-23T04:13:50;3.50;;;3.30;;
23370;SDS011;11858;51.056;3.712;2024-03-23T04:16:26;3.50;;;3.30;;
23370;SDS011;11858;51.056;3.712;2024-03-23T04:18:52;3.58;;;3.38;;
23370;SDS011;11858;51.056;3.712;2024-03-23T04:21:18;3.80;;;3.60;;
23370;SDS011;11858;51.056;3.712;2024-03-23T04:23:44;3.40;;;3.20;;
23370;SDS011;11858;51.056;3.712;2024-03-23T04:26:10;3.50;;;3.30;;
23370;SDS011;11858;51.056;3.712;2024-03-23T04:28:36;3.67;;;3.47;;
23370;SDS011;11858;51.056;3.712;2024-03-23T04:31:04;4.05;;;3.75;;
23370;SDS011;11858;51.056;3.712;2024-03-23T04:33:30;3.67;;;3.47;;
23370;SDS011;11858;51.056;3.712;2024-03-23T04:35:56;3.63;;;3.42;;
23370;SDS011;11858;51.056;3.712;2024-03-23T04:38:22;15.57;;;7.05;;
23370;SDS011;11858;51.056;3.712;2024-03-23T04:40:59;3.70;;;3.50;;
23370;SDS011;11858;51.056;3.712;2024-03-23T04:43:25;3.10;;;3.00;;
23370;SDS011;11858;51.056;3.712;2024-03-23T04:45:52;4.65;;;4.25;;
23370;SDS011;11858;51.056;3.712;2024-03-23T04:48:21;4.38;;;4.05;;
23370;SDS011;11858;51.056;3.712;2024-03-23T04:50:47;3.60;;;3.40;;
23370;SDS011;11858;51.056;3.712;2024-03-23T04:53:14;3.60;;;3.40;;
23370;SDS011;11858;51.056;3.712;2024-03-23T04:55:41;4.45;;;4.05;;
23370;SDS011;11858;51.056;3.712;2024-03-23T04:58:07;10.13;;;5.70;;
23370;SDS011;11858;51.056;3.712;2024-03-23T05:00:32;3.35;;;3.17;;
23370;SDS011;11858;51.056;3.712;2024-03-23T05:02:58;4.10;;;3.80;;
23370;SDS011;11858;51.056;3.712;2024-03-23T05:05:23;3.95;;;3.67;;
23370;SDS011;11858;51.056;3.712;2024-03-23T05:07:49;3.65;;;3.45;;
23370;SDS011;11858;51.056;3.712;2024-03-23T05:10:15;3.00;;;2.90;;
23370;SDS011;11858;51.056;3.712;2024-03-23T05:12:41;3.38;;;3.20;;
23370;SDS011;11858;51.056;3.712;2024-03-23T05:15:07;3.63;;;3.42;;
23370;SDS011;11858;51.056;3.712;2024-03-23T05:17:33;3.00;;;2.90;;
23370;SDS011;11858;51.056;3.712;2024-03-23T05:19:58;4.45;;;3.40;;
23370;SDS011;11858;51.056;3.712;2024-03-23T05:22:24;3.50;;;3.30;;
23370;SDS011;11858;51.056;3.712;2024-03-23T05:24:50;4.05;;;3.67;;
23370;SDS011;11858;51.056;3.712;2024-03-23T05:27:16;3.50;;;3.30;;
23370;SDS011;11858;51.056;3.712;2024-03-23T05:29:41;3.97;;;3.70;;
23370;SDS011;11858;51.056;3.712;2024-03-23T05:32:07;3.53;;;3.33;;
23370;SDS011;11858;51.056;3.712;2024-03-23T05:34:33;3.60;;;3.40;;
23370;SDS011;11858;51.056;3.712;2024-03-23T05:36:58;5.15;;;4.80;;
23370;SDS011;11858;51.056;3.712;2024-03-23T05:39:24;3.42;;;3.22;;
23370;SDS011;11858;51.056;3.712;2024-03-23T05:41:50;3.60;;;3.40;;
23370;SDS011;11858;51.056;3.712;2024-03-23T05:44:16;8.63;;;4.45;;
23370;SDS011;11858;51.056;3.712;2024-03-23T05:46:41;4.15;;;3.85;;
23370;SDS011;11858;51.056;3.712;2024-03-23T05:49:07;3.40;;;3.20;;
23370;SDS011;11858;51.056;3.712;2024-03-23T05:51:34;3.33;;;3.17;;
23370;SDS011;11858;51.056;3.712;2024-03-23T05:53:59;4.93;;;4.30;;
23370;SDS011;11858;51.056;3.712;2024-03-23T05:56:26;3.42;;;3.22;;
23370;SDS011;11858;51.056;3.712;2024-03-23T05:58:52;3.80;;;3.60;;
23370;SDS011;11858;51.056;3.712;2024-03-23T06:01:17;8.70;;;3.88;;
23370;SDS011;11858;51.056;3.712;2024-03-23T06:03:43;4.43;;;3.75;;
23370;SDS011;11858;51.056;3.712;2024-03-23T06:06:09;3.67;;;3.20;;
23370;SDS011;11858;51.056;3.712;2024-03-23T06:08:37;13.10;;;4.47;;
23370;SDS011;11858;51.056;3.712;2024-03-23T06:11:03;2.80;;;2.70;;
23370;SDS011;11858;51.056;3.712;2024-03-23T06:13:31;8.27;;;4.03;;
23370;SDS011;11858;51.056;3.712;2024-03-23T06:15:57;16.77;;;4.55;;
23370;SDS011;11858;51.056;3.712;2024-03-23T06:18:23;6.57;;;3.35;;
23370;SDS011;11858;51.056;3.712;2024-03-23T06:20:49;16.05;;;4.50;;
23370;SDS011;11858;51.056;3.712;2024-03-23T06:23:15;8.27;;;3.58;;
23370;SDS011;11858;51.056;3.712;2024-03-23T06:25:42;4.38;;;3.08;;
23370;SDS011;11858;51.056;3.712;2024-03-23T06:28:08;3.08;;;2.72;;
23370;SDS011;11858;51.056;3.712;2024-03-23T06:30:35;2.95;;;2.75;;
23370;SDS011;11858;51.056;3.712;2024-03-23T06:33:01;2.53;;;2.42;;
23370;SDS011;11858;51.056;3.712;2024-03-23T06:35:27;6.63;;;3.33;;
23370;SDS011;11858;51.056;3.712;2024-03-23T06:37:53;5.53;;;3.95;;
23370;SDS011;11858;51.056;3.712;2024-03-23T06:40:18;2.75;;;2.65;;
23370;SDS011;11858;51.056;3.712;2024-03-23T06:42:44;2.70;;;2.60;;
23370;SDS011;11858;51.056;3.712;2024-03-23T06:45:09;11.23;;;4.38;;
23370;SDS011;11858;51.056;3.712;2024-03-23T06:47:35;4.10;;;3.63;;
23370;SDS011;11858;51.056;3.712;2024-03-23T06:50:03;3.20;;;3.00;;
23370;SDS011;11858;51.056;3.712;2024-03-23T06:52:29;9.75;;;4.00;;
23370;SDS011;11858;51.056;3.712;2024-03-23T06:54:55;3.72;;;3.45;;
23370;SDS011;11858;51.056;3.712;2024-03-23T06:57:21;7.00;;;4.03;;
23370;SDS011;11858;51.056;3.712;2024-03-23T06:59:47;11.23;;;4.00;;
23370;SDS011;11858;51.056;3.712;2024-03-23T07:02:13;3.25;;;3.05;;
23370;SDS011;11858;51.056;3.712;2024-03-23T07:04:38;6.45;;;4.05;;
23370;SDS011;11858;51.056;3.712;2024-03-23T07:07:07;10.68;;;4.43;;
23370;SDS011;11858;51.056;3.712;2024-03-23T07:09:33;9.15;;;3.10;;
23370;SDS011;11858;51.056;3.712;2024-03-23T07:11:58;8.35;;;3.75;;
23370;SDS011;11858;51.056;3.712;2024-03-23T07:14:24;3.17;;;2.97;;
23370;SDS011;11858;51.056;3.712;2024-03-23T07:16:50;3.88;;;3.53;;
23370;SDS011;11858;51.056;3.712;2024-03-23T07:19:19;4.28;;;3.53;;
23370;SDS011;11858;51.056;3.712;2024-03-23T07:21:45;4.10;;;3.33;;
23370;SDS011;11858;51.056;3.712;2024-03-23T07:24:10;3.42;;;3.15;;
23370;SDS011;11858;51.056;3.712;2024-03-23T07:26:36;3.33;;;3.13;;
23370;SDS011;11858;51.056;3.712;2024-03-23T07:29:06;3.97;;;3.72;;
23370;SDS011;11858;51.056;3.712;2024-03-23T07:31:32;4.10;;;3.90;;
23370;SDS011;11858;51.056;3.712;2024-03-23T07:33:57;4.93;;;4.63;;
23370;SDS011;11858;51.056;3.712;2024-03-23T07:36:23;3.80;;;3.60;;
23370;SDS011;11858;51.056;3.712;2024-03-23T07:38:49;3.83;;;3.58;;
23370;SDS011;11858;51.056;3.712;2024-03-23T07:41:16;13.07;;;5.22;;
23370;SDS011;11858;51.056;3.712;2024-03-23T07:43:46;3.03;;;2.92;;
23370;SDS011;11858;51.056;3.712;2024-03-23T07:46:14;3.50;;;3.30;;
23370;SDS011;11858;51.056;3.712;2024-03-23T07:48:40;2.80;;;2.70;;
23370;SDS011;11858;51.056;3.712;2024-03-23T07:51:10;2.38;;;2.28;;
23370;SDS011;11858;51.056;3.712;2024-03-23T07:53:39;16.50;;;4.85;;
23370;SDS011;11858;51.056;3.712;2024-03-23T07:56:09;5.80;;;2.53;;
23370;SDS011;11858;51.056;3.712;2024-03-23T07:58:35;18.10;;;5.03;;
23370;SDS011;11858;51.056;3.712;2024-03-23T08:01:05;3.33;;;2.53;;
23370;SDS011;11858;51.056;3.712;2024-03-23T08:03:36;5.28;;;3.78;;
23370;SDS011;11858;51.056;3.712;2024-03-23T08:08:51;5.65;;;5.35;;
23370;SDS011;11858;51.056;3.712;2024-03-23T08:11:27;8.68;;;8.18;;
23370;SDS011;11858;51.056;3.712;2024-03-23T08:13:54;12.48;;;11.48;;
23370;SDS011;11858;51.056;3.712;2024-03-23T08:16:20;15.27;;;13.63;;
23370;SDS011;11858;51.056;3.712;2024-03-23T08:18:46;15.30;;;14.30;;
23370;SDS011;11858;51.056;3.712;2024-03-23T08:21:12;18.13;;;16.67;;
23370;SDS011;11858;51.056;3.712;2024-03-23T08:23:37;20.42;;;18.92;;
23370;SDS011;11858;51.056;3.712;2024-03-23T08:26:04;21.38;;;19.77;;
23370;SDS011;11858;51.056;3.712;2024-03-23T08:28:30;22.60;;;20.35;;
23370;SDS011;11858;51.056;3.712;2024-03-23T08:30:56;20.70;;;19.23;;
23370;SDS011;11858;51.056;3.712;2024-03-23T08:33:25;19.27;;;18.08;;
23370;SDS011;11858;51.056;3.712;2024-03-23T08:35:57;9.90;;;9.15;;
23370;SDS011;11858;51.056;3.712;2024-03-23T08:38:30;9.50;;;8.82;;
23370;SDS011;11858;51.056;3.712;2024-03-23T08:41:03;12.88;;;10.05;;
23370;SDS011;11858;51.056;3.712;2024-03-23T08:43:29;15.20;;;8.65;;
23370;SDS011;11858;51.056;3.712;2024-03-23T08:46:09;6.60;;;6.20;;
23370;SDS011;11858;51.056;3.712;2024-03-23T08:48:36;6.07;;;5.78;;
23370;SDS011;11858;51.056;3.712;2024-03-23T08:51:08;4.50;;;4.20;;
23370;SDS011;11858;51.056;3.712;2024-03-23T08:53:34;14.07;;;5.97;;
23370;SDS011;11858;51.056;3.712;2024-03-23T08:56:02;12.02;;;8.52;;
23370;SDS011;11858;51.056;3.712;2024-03-23T08:58:29;13.07;;;12.02;;
23370;SDS011;11858;51.056;3.712;2024-03-23T09:00:57;18.92;;;17.13;;
23370;SDS011;11858;51.056;3.712;2024-03-23T09:03:28;17.02;;;15.70;;
23370;SDS011;11858;51.056;3.712;2024-03-23T09:05:54;17.95;;;16.85;;
23370;SDS011;11858;51.056;3.712;2024-03-23T09:08:20;20.55;;;18.58;;
23370;SDS011;11858;51.056;3.712;2024-03-23T09:10:47;21.20;;;19.67;;
23370;SDS011;11858;51.056;3.712;2024-03-23T09:13:13;20.38;;;19.08;;
23370;SDS011;11858;51.056;3.712;2024-03-23T09:15:49;23.38;;;21.60;;
23370;SDS011;11858;51.056;3.712;2024-03-23T09:18:16;20.35;;;19.05;;
23370;SDS011;11858;51.056;3.712;2024-03-23T09:20:42;22.23;;;19.73;;
23370;SDS011;11858;51.056;3.712;2024-03-23T09:23:08;21.05;;;19.15;;
23370;SDS011;11858;51.056;3.712;2024-03-23T09:25:39;19.70;;;18.15;;
23370;SDS011;11858;51.056;3.712;2024-03-23T09:28:05;20.20;;;18.90;;
23370;SDS011;11858;51.056;3.712;2024-03-23T09:30:33;20.25;;;18.50;;
23370;SDS011;11858;51.056;3.712;2024-03-23T09:32:59;20.20;;;18.90;;
23370;SDS011;11858;51.056;3.712;2024-03-23T09:35:26;19.98;;;18.67;;
23370;SDS011;11858;51.056;3.712;2024-03-23T09:37:52;21.60;;;20.10;;
23370;SDS011;11858;51.056;3.712;2024-03-23T09:40:17;20.33;;;18.63;;
23370;SDS011;11858;51.056;3.712;2024-03-23T09:42:43;20.40;;;18.73;;
23370;SDS011;11858;51.056;3.712;2024-03-23T09:45:17;20.77;;;19.15;;
23370;SDS011;11858;51.056;3.712;2024-03-23T09:47:46;19.92;;;18.40;;
23370;SDS011;11858;51.056;3.712;2024-03-23T09:50:12;21.83;;;19.52;;
23370;SDS011;11858;51.056;3.712;2024-03-23T09:52:38;18.60;;;17.48;;
23370;SDS011;11858;51.056;3.712;2024-03-23T09:55:05;19.98;;;18.58;;
23370;SDS011;11858;51.056;3.712;2024-03-23T09:57:31;18.92;;;17.80;;
23370;SDS011;11858;51.056;3.712;2024-03-23T09:59:57;19.38;;;18.17;;
23370;SDS011;11858;51.056;3.712;2024-03-23T10:02:23;22.90;;;21.25;;
23370;SDS011;11858;51.056;3.712;2024-03-23T10:04:49;19.92;;;18.25;;
23370;SDS011;11858;51.056;3.712;2024-03-23T10:07:15;20.05;;;18.75;;
23370;SDS011;11858;51.056;3.712;2024-03-23T10:09:44;20.85;;;19.40;;
23370;SDS011;11858;51.056;3.712;2024-03-23T10:12:12;22.05;;;20.38;;
23370;SDS011;11858;51.056;3.712;2024-03-23T10:14:41;20.17;;;18.88;;
23370;SDS011;11858;51.056;3.712;2024-03-23T10:17:11;20.23;;;18.92;;
23370;SDS011;11858;51.056;3.712;2024-03-23T10:19:45;23.23;;;21.05;;
23370;SDS011;11858;51.056;3.712;2024-03-23T10:22:18;21.60;;;20.20;;
23370;SDS011;11858;51.056;3.712;2024-03-23T10:24:45;23.17;;;21.27;;
23370;SDS011;11858;51.056;3.712;2024-03-23T10:27:18;24.40;;;22.15;;
23370;SDS011;11858;51.056;3.712;2024-03-23T10:29:48;20.48;;;19.17;;
23370;SDS011;11858;51.056;3.712;2024-03-23T10:32:15;19.73;;;18.50;;
23370;SDS011;11858;51.056;3.712;2024-03-23T10:34:41;20.58;;;19.17;;
23370;SDS011;11858;51.056;3.712;2024-03-23T10:37:07;20.73;;;19.15;;
23370;SDS011;11858;51.056;3.712;2024-03-23T10:39:34;19.60;;;18.40;;
23370;SDS011;11858;51.056;3.712;2024-03-23T10:42:10;20.65;;;19.10;;
23370;SDS011;11858;51.056;3.712;2024-03-23T10:44:36;20.17;;;18.88;;
23370;SDS011;11858;51.056;3.712;2024-03-23T10:47:02;20.83;;;19.00;;
23370;SDS011;11858;51.056;3.712;2024-03-23T10:49:29;20.23;;;18.58;;
23370;SDS011;11858;51.056;3.712;2024-03-23T10:51:59;21.67;;;19.85;;
23370;SDS011;11858;51.056;3.712;2024-03-23T10:54:25;19.83;;;18.53;;
23370;SDS011;11858;51.056;3.712;2024-03-23T10:57:03;19.87;;;18.57;;
23370;SDS011;11858;51.056;3.712;2024-03-23T10:59:54;20.30;;;18.90;;
23370;SDS011;11858;51.056;3.712;2024-03-23T11:02:21;20.50;;;19.20;;
23370;SDS011;11858;51.056;3.712;2024-03-23T11:04:47;20.30;;;19.00;;
23370;SDS011;11858;51.056;3.712;2024-03-23T11:09:53;21.45;;;19.85;;
23370;SDS011;11858;51.056;3.712;2024-03-23T11:14:48;20.50;;;19.17;;
23370;SDS011;11858;51.056;3.712;2024-03-23T11:17:21;19.25;;;18.05;;
23370;SDS011;11858;51.056;3.712;2024-03-23T11:25:22;21.40;;;20.02;;
23370;SDS011;11858;51.056;3.712;2024-03-23T11:27:51;21.73;;;20.13;;
23370;SDS011;11858;51.056;3.712;2024-03-23T11:30:19;20.65;;;19.35;;
23370;SDS011;11858;51.056;3.712;2024-03-23T11:32:53;21.30;;;19.67;;
23370;SDS011;11858;51.056;3.712;2024-03-23T11:35:33;22.17;;;20.15;;
23370;SDS011;11858;51.056;3.712;2024-03-23T11:38:03;19.40;;;18.08;;
23370;SDS011;11858;51.056;3.712;2024-03-23T11:40:53;20.80;;;19.30;;
23370;SDS011;11858;51.056;3.712;2024-03-23T11:43:19;19.33;;;17.77;;
23370;SDS011;11858;51.056;3.712;2024-03-23T11:45:46;19.08;;;17.88;;
23370;SDS011;11858;51.056;3.712;2024-03-23T11:48:20;17.67;;;16.58;;
23370;SDS011;11858;51.056;3.712;2024-03-23T11:50:48;20.77;;;19.20;;
23370;SDS011;11858;51.056;3.712;2024-03-23T11:53:23;19.08;;;17.88;;
23370;SDS011;11858;51.056;3.712;2024-03-23T11:55:50;19.42;;;18.23;;
23370;SDS011;11858;51.056;3.712;2024-03-23T12:01:02;19.20;;;17.80;;
23370;SDS011;11858;51.056;3.712;2024-03-23T12:03:28;18.77;;;17.67;;
23370;SDS011;11858;51.056;3.712;2024-03-23T12:05:55;18.35;;;17.25;;
23370;SDS011;11858;51.056;3.712;2024-03-23T12:08:23;20.42;;;18.60;;
23370;SDS011;11858;51.056;3.712;2024-03-23T12:11:09;19.20;;;18.00;;
23370;SDS011;11858;51.056;3.712;2024-03-23T12:13:39;20.52;;;18.70;;
23370;SDS011;11858;51.056;3.712;2024-03-23T12:18:46;20.40;;;19.00;;
23370;SDS011;11858;51.056;3.712;2024-03-23T12:21:14;20.08;;;18.75;;
23370;SDS011;11858;51.056;3.712;2024-03-23T12:23:40;22.27;;;19.48;;
23370;SDS011;11858;51.056;3.712;2024-03-23T12:26:07;20.15;;;18.30;;
23370;SDS011;11858;51.056;3.712;2024-03-23T12:28:32;27.52;;;19.27;;
23370;SDS011;11858;51.056;3.712;2024-03-23T12:30:58;19.38;;;18.17;;
23370;SDS011;11858;51.056;3.712;2024-03-23T12:33:24;20.83;;;18.92;;
23370;SDS011;11858;51.056;3.712;2024-03-23T12:35:50;19.33;;;18.08;;
23370;SDS011;11858;51.056;3.712;2024-03-23T12:38:16;18.45;;;17.30;;
23370;SDS011;11858;51.056;3.712;2024-03-23T12:40:51;18.42;;;17.33;;
23370;SDS011;11858;51.056;3.712;2024-03-23T12:43:17;19.77;;;18.52;;
23370;SDS011;11858;51.056;3.712;2024-03-23T12:45:49;20.58;;;19.17;;
23370;SDS011;11858;51.056;3.712;2024-03-23T12:48:15;19.33;;;18.02;;
23370;SDS011;11858;51.056;3.712;2024-03-23T12:50:41;18.98;;;17.77;;
23370;SDS011;11858;51.056;3.712;2024-03-23T12:53:06;20.13;;;18.67;;
23370;SDS011;11858;51.056;3.712;2024-03-23T12:55:34;18.67;;;17.58;;
23370;SDS011;11858;51.056;3.712;2024-03-23T12:58:00;19.45;;;18.15;;
23370;SDS011;11858;51.056;3.712;2024-03-23T13:00:26;19.00;;;17.80;;
23370;SDS011;11858;51.056;3.712;2024-03-23T13:02:52;19.25;;;17.85;;
23370;SDS011;11858;51.056;3.712;2024-03-23T13:05:17;18.30;;;17.20;;
23370;SDS011;11858;51.056;3.712;2024-03-23T13:07:43;17.40;;;16.40;;
23370;SDS011;11858;51.056;3.712;2024-03-23T13:10:09;17.10;;;16.00;;
23370;SDS011;11858;51.056;3.712;2024-03-23T13:12:35;18.70;;;17.40;;
23370;SDS011;11858;51.056;3.712;2024-03-23T13:15:01;18.83;;;17.73;;
23370;SDS011;11858;51.056;3.712;2024-03-23T13:17:26;20.17;;;18.88;;
23370;SDS011;11858;51.056;3.712;2024-03-23T13:19:53;19.05;;;17.92;;
23370;SDS011;11858;51.056;3.712;2024-03-23T13:22:20;19.08;;;17.92;;
23370;SDS011;11858;51.056;3.712;2024-03-23T13:24:46;20.13;;;18.73;;
23370;SDS011;11858;51.056;3.712;2024-03-23T13:27:11;19.45;;;18.25;;
23370;SDS011;11858;51.056;3.712;2024-03-23T13:29:37;19.95;;;18.75;;
23370;SDS011;11858;51.056;3.712;2024-03-23T13:32:03;20.58;;;18.95;;
23370;SDS011;11858;51.056;3.712;2024-03-23T13:34:28;19.65;;;18.30;;
23370;SDS011;11858;51.056;3.712;2024-03-23T13:36:54;19.23;;;17.92;;
23370;SDS011;11858;51.056;3.712;2024-03-23T13:39:23;18.92;;;17.80;;
23370;SDS011;11858;51.056;3.712;2024-03-23T13:41:48;18.80;;;17.63;;
23370;SDS011;11858;51.056;3.712;2024-03-23T13:44:15;21.30;;;19.15;;
23370;SDS011;11858;51.056;3.712;2024-03-23T13:46:41;18.00;;;16.90;;
23370;SDS011;11858;51.056;3.712;2024-03-23T13:49:08;19.58;;;18.17;;
23370;SDS011;11858;51.056;3.712;2024-03-23T13:51:58;19.30;;;18.00;;
23370;SDS011;11858;51.056;3.712;2024-03-23T13:54:27;17.85;;;16.65;;
23370;SDS011;11858;51.056;3.712;2024-03-23T13:56:54;18.52;;;17.27;;
23370;SDS011;11858;51.056;3.712;2024-03-23T13:59:20;18.55;;;17.25;;
23370;SDS011;11858;51.056;3.712;2024-03-23T14:01:48;18.02;;;16.92;;
23370;SDS011;11858;51.056;3.712;2024-03-23T14:04:14;19.27;;;18.08;;
23370;SDS011;11858;51.056;3.712;2024-03-23T14:06:44;19.02;;;17.50;;
23370;SDS011;11858;51.056;3.712;2024-03-23T14:09:13;18.98;;;17.80;;
23370;SDS011;11858;51.056;3.712;2024-03-23T14:11:39;19.10;;;17.90;;
23370;SDS011;11858;51.056;3.712;2024-03-23T14:14:08;19.13;;;17.92;;
23370;SDS011;11858;51.056;3.712;2024-03-23T14:16:34;17.95;;;16.85;;
23370;SDS011;11858;51.056;3.712;2024-03-23T14:18:59;17.70;;;16.60;;
23370;SDS011;11858;51.056;3.712;2024-03-23T14:21:25;19.08;;;17.70;;
23370;SDS011;11858;51.056;3.712;2024-03-23T14:23:51;18.17;;;17.08;;
23370;SDS011;11858;51.056;3.712;2024-03-23T14:26:16;17.98;;;16.73;;
23370;SDS011;11858;51.056;3.712;2024-03-23T14:28:42;18.02;;;16.92;;
23370;SDS011;11858;51.056;3.712;2024-03-23T14:31:08;18.40;;;17.20;;
23370;SDS011;11858;51.056;3.712;2024-03-23T14:33:37;18.00;;;16.90;;
23370;SDS011;11858;51.056;3.712;2024-03-23T14:36:03;17.75;;;16.65;;
23370;SDS011;11858;51.056;3.712;2024-03-23T14:38:30;18.55;;;17.30;;
23370;SDS011;11858;51.056;3.712;2024-03-23T14:40:59;18.58;;;17.38;;
23370;SDS011;11858;51.056;3.712;2024-03-23T14:43:25;18.40;;;17.30;;
23370;SDS011;11858;51.056;3.712;2024-03-23T14:46:09;18.65;;;17.38;;
23370;SDS011;11858;51.056;3.712;2024-03-23T14:48:37;18.77;;;17.58;;
23370;SDS011;11858;51.056;3.712;2024-03-23T14:51:04;18.10;;;17.00;;
23370;SDS011;11858;51.056;3.712;2024-03-23T14:53:32;19.23;;;18.02;;
23370;SDS011;11858;51.056;3.712;2024-03-23T14:55:58;18.92;;;17.73;;
23370;SDS011;11858;51.056;3.712;2024-03-23T14:58:25;18.90;;;17.70;;
23370;SDS011;11858;51.056;3.712;2024-03-23T15:00:51;18.42;;;17.30;;
23370;SDS011;11858;51.056;3.712;2024-03-23T15:03:17;18.20;;;17.08;;
23370;SDS011;11858;51.056;3.712;2024-03-23T15:05:51;17.88;;;16.77;;
23370;SDS011;11858;51.056;3.712;2024-03-23T15:08:20;18.40;;;17.15;;
23370;SDS011;11858;51.056;3.712;2024-03-23T15:10:45;18.10;;;16.88;;
23370;SDS011;11858;51.056;3.712;2024-03-23T15:13:11;17.48;;;16.38;;
23370;SDS011;11858;51.056;3.712;2024-03-23T15:15:43;17.52;;;16.42;;
23370;SDS011;11858;51.056;3.712;2024-03-23T15:18:13;18.10;;;16.95;;
23370;SDS011;11858;51.056;3.712;2024-03-23T15:20:40;17.10;;;16.10;;
23370;SDS011;11858;51.056;3.712;2024-03-23T15:23:06;17.50;;;16.40;;
23370;SDS011;11858;51.056;3.712;2024-03-23T15:25:32;18.63;;;17.30;;
23370;SDS011;11858;51.056;3.712;2024-03-23T15:27:58;18.83;;;17.63;;
23370;SDS011;11858;51.056;3.712;2024-03-23T15:30:25;18.83;;;17.55;;
23370;SDS011;11858;51.056;3.712;2024-03-23T15:32:51;19.20;;;18.00;;
23370;SDS011;11858;51.056;3.712;2024-03-23T15:35:17;19.83;;;17.77;;
23370;SDS011;11858;51.056;3.712;2024-03-23T15:37:44;18.10;;;17.00;;
23370;SDS011;11858;51.056;3.712;2024-03-23T15:40:09;18.80;;;17.60;;
23370;SDS011;11858;51.056;3.712;2024-03-23T15:42:36;27.00;;;17.80;;
23370;SDS011;11858;51.056;3.712;2024-03-23T15:45:02;18.80;;;17.60;;
23370;SDS011;11858;51.056;3.712;2024-03-23T15:47:32;19.40;;;18.10;;